createdAt,value
2019-01-27T00:00:53.586Z,9.07
2019-01-27T00:03:34.566Z,11.07
2019-01-27T00:06:14.918Z,18.73
2019-01-27T00:08:43.890Z,8.97
2019-01-27T00:11:31.984Z,9.80
2019-01-27T00:14:20.025Z,8.90
2019-01-27T00:17:08.123Z,8.20
2019-01-27T00:19:56.156Z,11.83
2019-01-27T00:22:44.350Z,7.47
2019-01-27T00:25:32.466Z,8.03
2019-01-27T00:28:20.819Z,10.10
2019-01-27T00:31:08.852Z,8.87
2019-01-27T00:33:56.966Z,8.30
2019-01-27T00:36:45.007Z,8.63
2019-01-27T00:39:33.290Z,11.30
2019-01-27T00:42:21.318Z,8.60
2019-01-27T00:45:10.238Z,6.80
2019-01-27T00:47:51.149Z,7.00
2019-01-27T00:50:29.986Z,7.83
2019-01-27T00:53:18.138Z,7.67
2019-01-27T00:56:06.534Z,8.00
2019-01-27T00:58:54.795Z,6.17
2019-01-27T01:01:42.905Z,7.07
2019-01-27T01:04:31.280Z,7.60
2019-01-27T01:07:19.454Z,9.13
2019-01-27T01:13:04.015Z,6.90
2019-01-27T01:15:52.126Z,7.53
2019-01-27T01:18:40.235Z,7.73
2019-01-27T01:21:28.425Z,7.93
2019-01-27T01:24:16.530Z,6.57
2019-01-27T01:27:04.830Z,8.27
2019-01-27T01:29:52.953Z,7.33
2019-01-27T01:32:41.066Z,5.90
2019-01-27T01:35:29.184Z,7.47
2019-01-27T01:38:17.281Z,7.03
2019-01-27T01:41:05.927Z,6.47
2019-01-27T01:43:54.197Z,6.90
2019-01-27T01:46:42.306Z,6.43
2019-01-27T01:49:23.369Z,7.07
2019-01-27T01:52:04.077Z,6.37
2019-01-27T02:01:06.286Z,5.87
2019-01-27T02:03:47.569Z,7.10
2019-01-27T02:06:28.527Z,6.73
2019-01-27T02:09:10.591Z,7.73
2019-01-27T02:11:51.430Z,6.27
2019-01-27T02:14:30.486Z,5.77
2019-01-27T02:17:18.663Z,5.90
2019-01-27T02:20:06.785Z,5.97
2019-01-27T02:22:54.898Z,7.40
2019-01-27T02:25:43.001Z,6.47
2019-01-27T02:28:31.115Z,5.07
2019-01-27T02:31:19.301Z,7.03
2019-01-27T02:34:07.594Z,6.23
2019-01-27T02:36:55.710Z,7.13
2019-01-27T02:39:43.737Z,6.93
2019-01-27T02:42:31.859Z,7.40
2019-01-27T02:45:19.952Z,5.87
2019-01-27T02:47:58.855Z,6.80
2019-01-27T02:50:27.762Z,5.53
2019-01-27T02:53:15.877Z,7.70
2019-01-27T02:59:31.750Z,8.60
2019-01-27T03:02:19.930Z,6.20
2019-01-27T03:11:22.526Z,8.00
2019-01-27T03:14:10.650Z,7.43
2019-01-27T03:16:58.767Z,7.73
2019-01-27T03:19:46.801Z,6.63
2019-01-27T03:22:34.856Z,9.90
2019-01-27T03:25:22.958Z,7.23
2019-01-27T03:28:11.093Z,9.30
2019-01-27T03:30:59.439Z,7.30
2019-01-27T03:33:47.482Z,8.17
2019-01-27T03:36:35.589Z,8.03
2019-01-27T03:39:23.697Z,8.30
2019-01-27T03:42:11.806Z,11.40
2019-01-27T03:44:59.936Z,7.53
2019-01-27T03:47:28.833Z,9.40
2019-01-27T03:50:10.007Z,7.93
2019-01-27T03:52:50.690Z,7.33
2019-01-27T03:58:15.891Z,7.47
2019-01-27T04:00:56.345Z,8.93
2019-01-27T04:03:37.168Z,8.10
2019-01-27T04:06:18.406Z,6.80
2019-01-27T04:08:58.986Z,9.00
2019-01-27T04:11:39.562Z,7.27
2019-01-27T04:14:20.290Z,8.43
2019-01-27T04:17:00.973Z,9.10
2019-01-27T04:19:41.298Z,7.50
2019-01-27T04:22:21.902Z,7.43
2019-01-27T04:25:02.322Z,6.60
2019-01-27T04:30:56.233Z,8.07
2019-01-27T04:33:37.846Z,9.23
2019-01-27T04:36:18.306Z,6.70
2019-01-27T04:38:56.802Z,6.37
2019-01-27T04:41:44.914Z,8.60
2019-01-27T04:44:32.951Z,7.17
2019-01-27T04:47:11.930Z,5.77
2019-01-27T04:50:00.278Z,5.90
2019-01-27T04:52:48.402Z,7.90
2019-01-27T04:55:36.522Z,6.33
2019-01-27T04:58:24.621Z,6.50
2019-01-27T05:01:12.750Z,8.57
2019-01-27T05:04:20.174Z,7.57
2019-01-27T05:07:08.283Z,7.27
2019-01-27T05:09:56.659Z,8.00
2019-01-27T05:12:44.990Z,8.03
2019-01-27T05:15:33.402Z,8.13
2019-01-27T05:18:21.446Z,10.10
2019-01-27T05:21:09.567Z,8.47
2019-01-27T05:23:57.847Z,8.97
2019-01-27T05:26:45.966Z,9.47
2019-01-27T05:29:34.002Z,9.27
2019-01-27T05:32:22.130Z,6.73
2019-01-27T05:35:10.242Z,10.40
2019-01-27T05:37:58.266Z,9.33
2019-01-27T05:40:46.394Z,7.43
2019-01-27T05:43:34.438Z,7.13
2019-01-27T05:46:22.798Z,8.67
2019-01-27T05:49:03.110Z,9.97
2019-01-27T05:51:43.530Z,9.53
2019-01-27T05:54:24.062Z,7.77
2019-01-27T05:57:04.618Z,9.90
2019-01-27T05:59:45.550Z,8.80
2019-01-27T06:02:26.118Z,8.53
2019-01-27T06:05:06.625Z,9.03
2019-01-27T06:07:47.177Z,7.53
2019-01-27T06:10:26.482Z,8.90
2019-01-27T06:13:14.530Z,6.67
2019-01-27T06:16:02.574Z,8.37
2019-01-27T06:18:50.926Z,7.00
2019-01-27T06:21:39.209Z,6.43
2019-01-27T06:24:27.240Z,8.30
2019-01-27T06:27:15.827Z,6.43
2019-01-27T06:33:51.247Z,7.83
2019-01-27T06:36:39.605Z,4.93
2019-01-27T06:39:27.711Z,5.03
2019-01-27T06:42:15.842Z,6.53
2019-01-27T06:45:04.495Z,6.70
2019-01-27T06:47:43.359Z,4.83
2019-01-27T06:50:12.690Z,6.13
2019-01-27T06:53:01.122Z,5.23
2019-01-27T06:55:49.226Z,3.80
2019-01-27T06:58:56.416Z,4.53
2019-01-27T07:02:03.594Z,4.73
2019-01-27T07:05:10.758Z,4.47
2019-01-27T07:08:17.951Z,5.13
2019-01-27T07:11:25.123Z,2.80
2019-01-27T07:14:32.472Z,3.20
2019-01-27T07:17:39.670Z,6.57
2019-01-27T07:20:46.958Z,7.00
2019-01-27T07:23:54.134Z,3.03
2019-01-27T07:27:01.346Z,3.70
2019-01-27T07:30:08.518Z,3.60
2019-01-27T07:33:15.709Z,3.93
2019-01-27T07:36:22.970Z,4.17
2019-01-27T07:39:30.142Z,4.20
2019-01-27T07:42:24.118Z,2.87
2019-01-27T07:45:31.916Z,2.60
2019-01-27T07:48:26.823Z,3.03
2019-01-27T07:51:33.917Z,2.37
2019-01-27T07:54:41.098Z,2.53
2019-01-27T07:57:48.271Z,2.00
2019-01-27T08:00:40.606Z,4.27
2019-01-27T08:03:34.483Z,2.40
2019-01-27T08:06:28.230Z,2.57
2019-01-27T08:09:35.338Z,1.90
2019-01-27T08:12:42.502Z,3.17
2019-01-27T08:15:49.670Z,1.70
2019-01-27T08:18:56.774Z,2.53
2019-01-27T08:22:03.950Z,1.43
2019-01-27T08:25:11.060Z,1.77
2019-01-27T08:28:18.147Z,2.43
2019-01-27T08:31:25.540Z,2.03
2019-01-27T08:34:32.706Z,3.13
2019-01-27T08:37:39.878Z,2.07
2019-01-27T08:40:47.069Z,1.70
2019-01-27T08:43:54.241Z,2.07
2019-01-27T08:47:01.421Z,1.77
2019-01-27T08:52:24.333Z,1.97
2019-01-27T08:55:04.737Z,3.90
2019-01-27T08:57:45.202Z,1.63
2019-01-27T09:03:43.202Z,3.20
2019-01-27T09:06:37.869Z,2.10
2019-01-27T09:09:45.026Z,2.73
2019-01-27T09:12:41.193Z,3.93
2019-01-27T09:15:48.366Z,1.80
2019-01-27T09:18:56.089Z,1.43
2019-01-27T09:22:03.278Z,2.17
2019-01-27T09:25:10.603Z,2.70
2019-01-27T09:28:17.951Z,1.40
2019-01-27T09:31:25.357Z,2.40
2019-01-27T09:34:32.458Z,2.80
2019-01-27T09:37:39.665Z,1.50
2019-01-27T09:40:46.762Z,2.80
2019-01-27T09:43:43.847Z,2.93
2019-01-27T09:46:50.999Z,2.77
2019-01-27T09:49:38.590Z,1.23
2019-01-27T09:52:20.114Z,1.50
2019-01-27T09:55:10.206Z,1.90
2019-01-27T09:58:12.662Z,1.67
2019-01-27T10:01:05.633Z,3.03
2019-01-27T10:03:47.130Z,1.13
2019-01-27T10:09:52.542Z,3.63
2019-01-27T10:12:55.632Z,2.67
2019-01-27T10:16:03.975Z,1.73
2019-01-27T10:19:06.502Z,2.27
2019-01-27T10:22:06.270Z,2.77
2019-01-27T10:24:59.155Z,2.63
2019-01-27T10:27:59.150Z,2.77
2019-01-27T10:31:01.919Z,2.63
2019-01-27T10:33:51.018Z,2.33
2019-01-27T10:36:38.382Z,2.03
2019-01-27T10:39:41.001Z,1.53
2019-01-27T10:42:39.170Z,3.40
2019-01-27T10:45:39.787Z,2.57
2019-01-27T10:51:49.439Z,2.07
2019-01-27T10:54:56.845Z,1.27
2019-01-27T10:58:04.014Z,3.30
2019-01-27T11:01:11.195Z,2.23
2019-01-27T11:04:18.414Z,5.53
2019-01-27T11:07:25.591Z,5.90
2019-01-27T11:10:32.768Z,3.63
2019-01-27T11:13:39.936Z,2.33
2019-01-27T11:16:47.130Z,4.27
2019-01-27T11:22:57.425Z,4.07
2019-01-27T11:26:04.606Z,2.20
2019-01-27T11:32:06.491Z,1.73
2019-01-27T11:35:13.683Z,3.17
2019-01-27T11:38:21.163Z,4.10
2019-01-27T11:41:19.034Z,5.17
2019-01-27T11:44:26.236Z,3.67
2019-01-27T11:47:21.063Z,7.10
2019-01-27T11:52:45.196Z,3.77
2019-01-27T11:55:33.330Z,2.50
2019-01-27T11:58:21.443Z,2.07
2019-01-27T12:01:09.558Z,6.90
2019-01-27T12:03:57.605Z,3.07
2019-01-27T12:06:45.778Z,2.50
2019-01-27T12:09:33.881Z,4.00
2019-01-27T12:12:21.998Z,4.00
2019-01-27T12:15:11.493Z,4.33
2019-01-27T12:17:59.618Z,3.93
2019-01-27T12:20:47.880Z,4.47
2019-01-27T12:23:35.989Z,3.70
2019-01-27T12:26:24.093Z,3.27
2019-01-27T12:29:12.241Z,2.50
2019-01-27T12:32:00.282Z,3.33
2019-01-27T12:34:48.385Z,2.70
2019-01-27T12:37:36.738Z,2.87
2019-01-27T12:40:24.844Z,3.80
2019-01-27T12:43:12.991Z,3.10
2019-01-27T12:46:01.114Z,4.67
2019-01-27T12:48:41.674Z,3.87
2019-01-27T12:51:22.371Z,7.53
2019-01-27T12:54:03.103Z,3.33
2019-01-27T12:56:41.718Z,3.43
2019-01-27T12:59:29.837Z,3.80
2019-01-27T13:02:18.192Z,3.37
2019-01-27T13:05:10.242Z,1.70
2019-01-27T13:07:56.064Z,3.87
2019-01-27T13:10:44.346Z,2.97
2019-01-27T13:13:32.482Z,1.83
2019-01-27T13:16:20.582Z,4.47
2019-01-27T13:19:08.707Z,3.07
2019-01-27T13:21:56.746Z,2.97
2019-01-27T13:24:44.794Z,1.70
2019-01-27T13:27:32.906Z,3.33
2019-01-27T13:30:21.843Z,2.37
2019-01-27T13:33:09.933Z,2.80
2019-01-27T13:35:58.274Z,2.80
2019-01-27T13:38:51.036Z,3.03
2019-01-27T13:41:36.218Z,1.70
2019-01-27T13:44:24.339Z,3.37
2019-01-27T13:47:12.449Z,2.70
2019-01-27T13:49:53.793Z,2.17
2019-01-27T13:52:34.455Z,3.10
2019-01-27T13:55:14.858Z,1.97
2019-01-27T13:57:55.466Z,2.63
2019-01-27T14:00:36.558Z,2.13
2019-01-27T14:03:17.294Z,2.17
2019-01-27T14:05:58.254Z,2.00
2019-01-27T14:08:39.434Z,2.97
2019-01-27T14:14:08.062Z,4.47
2019-01-27T14:16:48.593Z,3.20
2019-01-27T14:19:32.171Z,1.80
2019-01-27T14:22:12.898Z,3.40
2019-01-27T14:24:53.238Z,2.37
2019-01-27T14:27:31.818Z,2.37
2019-01-27T14:30:21.300Z,4.83
2019-01-27T14:33:09.458Z,3.53
2019-01-27T14:35:57.493Z,2.40
2019-01-27T14:38:45.597Z,1.87
2019-01-27T14:41:33.626Z,3.33
2019-01-27T14:44:22.023Z,2.60
2019-01-27T14:47:10.131Z,2.97
2019-01-27T14:49:52.886Z,3.33
2019-01-27T14:52:31.662Z,1.40
2019-01-27T14:55:19.778Z,2.23
2019-01-27T14:58:07.875Z,2.17
2019-01-27T15:00:56.058Z,3.43
2019-01-27T15:03:44.165Z,2.67
2019-01-27T15:06:32.279Z,2.27
2019-01-27T15:09:20.536Z,2.63
2019-01-27T15:12:08.618Z,3.57
2019-01-27T15:14:56.657Z,20.37
2019-01-27T15:17:45.020Z,5.97
2019-01-27T15:20:34.423Z,2.17
2019-01-27T15:23:22.530Z,2.33
2019-01-27T15:26:10.678Z,2.63
2019-01-27T15:28:58.702Z,2.20
2019-01-27T15:31:46.756Z,3.27
2019-01-27T15:34:15.721Z,3.30
2019-01-27T15:37:03.837Z,2.60
2019-01-27T15:39:51.986Z,3.60
2019-01-27T15:42:40.265Z,4.60
2019-01-27T15:45:28.974Z,4.50
2019-01-27T15:48:10.278Z,3.63
2019-01-27T15:50:50.670Z,3.83
2019-01-27T15:53:29.808Z,2.63
2019-01-27T15:56:17.934Z,3.37
2019-01-27T15:59:06.050Z,19.90
2019-01-27T16:01:54.170Z,4.73
2019-01-27T16:04:42.202Z,4.50
2019-01-27T16:07:30.311Z,3.83
2019-01-27T16:13:33.734Z,5.17
2019-01-27T16:16:22.162Z,2.20
2019-01-27T16:19:10.326Z,3.80
2019-01-27T16:21:58.722Z,4.67
2019-01-27T16:24:46.762Z,3.07
2019-01-27T16:27:34.797Z,3.73
2019-01-27T16:30:44.723Z,6.73
2019-01-27T16:36:24.646Z,2.10
2019-01-27T16:39:13.113Z,2.93
2019-01-27T16:42:01.262Z,2.80
2019-01-27T16:44:49.376Z,3.17
2019-01-27T16:47:37.710Z,3.57
2019-01-27T16:50:19.109Z,3.47
2019-01-27T16:53:00.134Z,3.80
2019-01-27T16:55:38.862Z,3.83
2019-01-27T16:58:26.973Z,6.33
2019-01-27T17:01:15.087Z,3.10
2019-01-27T17:04:03.205Z,2.43
2019-01-27T17:06:51.319Z,4.27
2019-01-27T17:09:39.346Z,3.23
2019-01-27T17:12:27.629Z,2.63
2019-01-27T17:15:15.723Z,3.30
2019-01-27T17:18:03.837Z,3.13
2019-01-27T17:20:51.946Z,3.37
2019-01-27T17:23:40.068Z,2.70
2019-01-27T17:26:28.105Z,3.27
2019-01-27T17:29:16.210Z,3.27
2019-01-27T17:32:04.571Z,3.87
2019-01-27T17:34:52.850Z,2.03
2019-01-27T17:37:40.976Z,2.10
2019-01-27T17:40:29.086Z,2.50
2019-01-27T17:43:17.207Z,2.47
2019-01-27T17:46:05.351Z,1.90
2019-01-27T17:48:45.704Z,2.50
2019-01-27T17:51:26.379Z,2.33
2019-01-27T17:54:08.838Z,2.20
2019-01-27T17:56:55.504Z,2.70
2019-01-27T18:00:02.672Z,2.80
2019-01-27T18:03:00.409Z,1.40
2019-01-27T18:05:58.962Z,4.23
2019-01-27T18:09:06.134Z,2.63
2019-01-27T18:12:13.556Z,1.83
2019-01-27T18:15:01.593Z,3.37
2019-01-27T18:17:49.998Z,1.97
2019-01-27T18:20:38.106Z,1.40
2019-01-27T18:23:26.232Z,1.20
2019-01-27T18:26:14.270Z,1.57
2019-01-27T18:29:02.382Z,3.73
2019-01-27T18:31:50.433Z,2.47
2019-01-27T18:34:38.559Z,3.17
2019-01-27T18:37:26.664Z,1.63
2019-01-27T18:40:15.156Z,3.53
2019-01-27T18:43:03.275Z,1.60
2019-01-27T18:45:51.380Z,2.90
2019-01-27T18:48:30.433Z,2.53
2019-01-27T18:51:18.526Z,2.50
2019-01-27T18:54:25.707Z,3.53
2019-01-27T18:57:32.995Z,2.83
2019-01-27T19:00:26.778Z,3.43
2019-01-27T19:03:34.231Z,1.93
2019-01-27T19:06:41.402Z,1.57
2019-01-27T19:09:48.515Z,4.50
2019-01-27T19:12:55.625Z,5.57
2019-01-27T19:15:52.598Z,5.67
2019-01-27T19:18:57.805Z,3.27
2019-01-27T19:22:04.986Z,2.10
2019-01-27T19:25:13.046Z,3.00
2019-01-27T19:28:20.239Z,1.97
2019-01-27T19:31:27.422Z,3.37
2019-01-27T19:34:24.830Z,3.73
2019-01-27T19:37:19.430Z,2.83
2019-01-27T19:40:27.158Z,3.00
2019-01-27T19:43:34.522Z,2.70
2019-01-27T19:46:41.710Z,3.57
2019-01-27T19:49:29.690Z,3.10
2019-01-27T19:52:36.799Z,2.67
2019-01-27T19:55:44.023Z,2.13
2019-01-27T19:58:38.501Z,3.00
2019-01-27T20:01:45.711Z,2.27
2019-01-27T20:04:52.802Z,2.77
2019-01-27T20:07:59.986Z,5.40
2019-01-27T20:11:07.203Z,2.23
2019-01-27T20:14:01.334Z,2.07
2019-01-27T20:17:08.521Z,1.73
2019-01-27T20:20:15.692Z,3.40
2019-01-27T20:23:22.890Z,4.00
2019-01-27T20:26:18.091Z,1.93
2019-01-27T20:29:25.258Z,1.43
2019-01-27T20:32:32.694Z,1.70
2019-01-27T20:35:39.859Z,3.20
2019-01-27T20:38:36.622Z,2.73
2019-01-27T20:41:44.046Z,2.47
2019-01-27T20:44:37.774Z,3.40
2019-01-27T20:47:34.838Z,3.13
2019-01-27T20:50:38.101Z,2.23
2019-01-27T20:53:36.575Z,3.57
2019-01-27T20:56:43.794Z,2.53
2019-01-27T20:59:31.913Z,3.40
2019-01-27T21:02:39.058Z,2.00
2019-01-27T21:05:46.226Z,2.67
2019-01-27T21:08:53.335Z,1.43
2019-01-27T21:11:41.363Z,2.07
2019-01-27T21:14:36.361Z,1.10
2019-01-27T21:17:43.600Z,0.60
2019-01-27T21:20:31.798Z,4.00
2019-01-27T21:23:19.913Z,1.37
2019-01-27T21:26:08.022Z,1.90
2019-01-27T21:28:56.154Z,1.53
2019-01-27T21:31:44.508Z,0.80
2019-01-27T21:34:32.598Z,0.67
2019-01-27T21:37:20.696Z,0.83
2019-01-27T21:40:10.895Z,1.23
2019-01-27T21:42:59.234Z,0.87
2019-01-27T21:45:47.350Z,0.70
2019-01-27T21:48:26.230Z,1.27
2019-01-27T21:51:14.326Z,0.60
2019-01-27T21:54:02.634Z,0.60
2019-01-27T21:56:50.742Z,0.90
2019-01-27T21:59:38.975Z,1.63
2019-01-27T22:02:27.062Z,0.83
2019-01-27T22:05:15.174Z,0.70
2019-01-27T22:08:03.273Z,2.03
2019-01-27T22:10:51.629Z,0.90
2019-01-27T22:13:39.742Z,0.60
2019-01-27T22:16:27.839Z,1.00
2019-01-27T22:19:15.958Z,0.57
2019-01-27T22:22:04.166Z,1.30
2019-01-27T22:24:52.279Z,2.20
2019-01-27T22:27:40.381Z,1.07
2019-01-27T22:30:28.495Z,1.37
2019-01-27T22:33:16.518Z,1.50
2019-01-27T22:36:05.412Z,1.80
2019-01-27T22:38:54.080Z,1.00
2019-01-27T22:41:42.505Z,1.13
2019-01-27T22:44:31.127Z,1.67
2019-01-27T22:47:19.456Z,0.60
2019-01-27T22:49:58.766Z,1.07
2019-01-27T22:52:47.693Z,2.73
2019-01-27T22:55:43.203Z,1.53
2019-01-27T22:58:31.436Z,1.10
2019-01-27T23:01:20.408Z,0.90
2019-01-27T23:04:09.347Z,1.30
2019-01-27T23:06:58.267Z,3.47
2019-01-27T23:09:47.195Z,1.50
2019-01-27T23:12:36.114Z,1.07
2019-01-27T23:15:24.505Z,1.30
2019-01-27T23:18:13.092Z,1.37
2019-01-27T23:21:01.447Z,0.97
2019-01-27T23:23:50.333Z,1.23
2019-01-27T23:26:38.990Z,1.10
2019-01-27T23:29:27.260Z,1.20
2019-01-27T23:32:16.998Z,1.27
2019-01-27T23:35:05.502Z,0.90
2019-01-27T23:38:07.815Z,0.83
2019-01-27T23:40:44.268Z,1.50
2019-01-27T23:43:32.667Z,0.90
2019-01-27T23:46:21.268Z,1.20
2019-01-27T23:49:02.068Z,1.20
2019-01-27T23:51:42.650Z,1.80
2019-01-27T23:54:11.880Z,2.67
2019-01-27T23:57:00.471Z,1.47
2019-01-27T23:59:48.896Z,1.57
